Time;durP1;ratioP1;P1;durP2;ratioP2;P2;SDS_P1;SDS_P2;PMS_P1;PMS_P2;Temp;Humidity;BMP_temperature;BMP_pressure;BME280_temperature;BME280_humidity;BME280_pressure;Samples;Min_cycle;Max_cycle;Signal;HPM_P1;HPM_P2
2023/10/28 00:01:40;;;;;;;0.10;0.10;;;;;;;16.97;87.15;100148.44;5018091;28;20560;-86
2023/10/28 00:04:06;;;;;;;0.10;0.10;;;;;;;16.88;86.51;100161.31;5001937;28;20028;-86
2023/10/28 00:06:31;;;;;;;0.10;0.10;;;;;;;16.77;87.59;100181.44;5018256;28;20406;-86
2023/10/28 00:08:57;;;;;;;0.10;0.10;;;;;;;16.74;88.52;100202.59;5018072;28;20036;-88
2023/10/28 00:11:22;;;;;;;0.10;0.10;;;;;;;16.57;88.98;100151.69;5018098;28;20086;-87
2023/10/28 00:13:48;;;;;;;0.10;0.10;;;;;;;16.58;88.42;100146.34;5034123;28;20044;-87
2023/10/28 00:16:14;;;;;;;0.10;0.10;;;;;;;16.69;89.04;100147.28;5018029;28;20025;-86
2023/10/28 00:18:39;;;;;;;0.10;0.10;;;;;;;16.76;88.68;100151.06;5018351;28;20029;-87
2023/10/28 00:21:07;;;;;;;0.10;0.10;;;;;;;16.78;88.55;100168.25;4999727;28;20033;-86
2023/10/28 00:23:33;;;;;;;0.10;0.10;;;;;;;16.74;88.45;100179.09;5001279;28;20048;-87
2023/10/28 00:26:05;;;;;;;0.10;0.10;;;;;;;16.77;89.89;100189.28;5015480;28;20032;-87
2023/10/28 00:28:33;;;;;;;0.10;0.10;;;;;;;16.77;90.81;100192.72;5017477;28;20510;-87
2023/10/28 00:31:02;;;;;;;0.17;0.17;;;;;;;16.81;89.10;100212.44;5034298;28;20033;-87
2023/10/28 00:33:28;;;;;;;0.10;0.10;;;;;;;16.87;89.18;100198.84;5017746;28;20033;-88
2023/10/28 00:35:54;;;;;;;0.10;0.10;;;;;;;16.94;88.89;100198.34;5033945;28;20043;-88
2023/10/28 00:38:20;;;;;;;0.10;0.10;;;;;;;16.79;88.17;100169.09;5017340;28;20021;-86
2023/10/28 00:40:46;;;;;;;0.20;0.20;;;;;;;16.92;86.85;100199.31;5033931;28;20410;-87
2023/10/28 00:43:12;;;;;;;0.10;0.10;;;;;;;16.98;87.21;100197.13;5000877;28;20025;-87
2023/10/28 00:45:38;;;;;;;0.10;0.10;;;;;;;16.96;88.29;100199.06;5017483;28;20036;-87
2023/10/28 00:48:04;;;;;;;0.10;0.10;;;;;;;16.78;86.30;100181.31;5001110;28;20032;-87
2023/10/28 00:50:30;;;;;;;0.13;0.13;;;;;;;16.66;87.01;100197.97;5017127;28;20033;-87
2023/10/28 00:52:55;;;;;;;0.10;0.10;;;;;;;16.55;87.45;100221.50;5017561;28;20483;-86
2023/10/28 00:55:22;;;;;;;0.10;0.10;;;;;;;16.36;88.24;100206.47;5017256;28;20079;-86
2023/10/28 00:57:48;;;;;;;0.10;0.10;;;;;;;16.24;88.03;100218.72;5033798;28;20170;-85
2023/10/28 01:00:17;;;;;;;0.10;0.10;;;;;;;16.06;88.58;100241.03;5000566;28;20486;-85
2023/10/28 01:02:43;;;;;;;0.13;0.13;;;;;;;16.07;87.70;100221.81;5034408;28;20021;-85
2023/10/28 01:05:11;;;;;;;0.10;0.10;;;;;;;16.18;89.07;100219.19;5000846;28;20113;-87
2023/10/28 01:07:38;;;;;;;0.10;0.10;;;;;;;16.21;89.14;100210.28;5001193;28;20065;-87
2023/10/28 01:10:03;;;;;;;0.10;0.10;;;;;;;16.09;89.15;100186.00;5033701;28;20086;-88
2023/10/28 01:12:29;;;;;;;0.10;0.10;;;;;;;16.01;89.96;100186.59;5016868;28;20116;-86
2023/10/28 01:14:55;;;;;;;0.10;0.10;;;;;;;15.99;89.02;100232.84;5050816;28;20094;-87
2023/10/28 01:17:25;;;;;;;0.10;0.10;;;;;;;16.14;88.49;100254.31;5017043;28;20033;-87
2023/10/28 01:19:53;;;;;;;0.10;0.10;;;;;;;16.12;87.89;100265.81;5001414;28;20025;-86
2023/10/28 01:22:21;;;;;;;0.20;0.20;;;;;;;16.16;87.84;100236.75;5000821;28;20139;-86
2023/10/28 01:24:49;;;;;;;0.10;0.10;;;;;;;16.13;89.27;100242.22;5016779;28;20025;-87
2023/10/28 01:27:14;;;;;;;0.10;0.10;;;;;;;16.05;90.97;100228.94;5033418;28;20116;-87
2023/10/28 01:29:40;;;;;;;0.10;0.10;;;;;;;16.09;88.65;100219.91;5016335;28;20028;-86
2023/10/28 01:32:06;;;;;;;0.10;0.10;;;;;;;16.04;85.28;100227.28;5016796;28;20033;-86
2023/10/28 01:34:32;;;;;;;0.10;0.10;;;;;;;16.04;85.24;100206.41;5016698;28;20025;-86
2023/10/28 01:36:57;;;;;;;0.10;0.10;;;;;;;16.07;86.76;100200.94;5016746;28;20069;-85
2023/10/28 01:39:23;;;;;;;0.10;0.10;;;;;;;15.53;88.35;100234.66;5016784;28;20056;-87
2023/10/28 01:41:49;;;;;;;0.10;0.10;;;;;;;15.40;86.28;100225.16;5000285;28;20033;-85
2023/10/28 01:44:16;;;;;;;0.10;0.10;;;;;;;15.52;87.14;100212.97;5032849;28;20052;-87
2023/10/28 01:46:41;;;;;;;0.10;0.10;;;;;;;15.47;86.88;100231.59;5033145;28;20110;-87
2023/10/28 01:49:07;;;;;;;0.10;0.10;;;;;;;15.50;86.20;100230.53;5016607;28;20482;-87
2023/10/28 01:51:32;;;;;;;0.10;0.10;;;;;;;15.30;87.31;100244.22;5016485;28;20083;-87
2023/10/28 01:53:58;;;;;;;0.10;0.10;;;;;;;15.17;87.17;100242.53;5016233;28;20032;-86
2023/10/28 01:56:23;;;;;;;0.10;0.10;;;;;;;15.39;87.38;100235.72;5000024;28;20029;-87
2023/10/28 01:58:48;;;;;;;0.10;0.10;;;;;;;15.48;88.24;100245.47;4999680;28;20086;-86
2023/10/28 02:01:14;;;;;;;0.10;0.10;;;;;;;15.56;88.52;100263.13;5032697;28;20025;-87
2023/10/28 02:03:40;;;;;;;0.10;0.10;;;;;;;15.64;88.71;100251.22;4999645;28;20041;-87
2023/10/28 02:06:06;;;;;;;0.10;0.10;;;;;;;15.62;88.70;100234.84;5032778;28;20021;-88
2023/10/28 02:08:32;;;;;;;0.10;0.10;;;;;;;15.72;86.85;100254.03;5016200;28;20449;-86
2023/10/28 02:10:59;;;;;;;0.10;0.10;;;;;;;15.78;86.92;100268.41;5016195;28;20049;-86
2023/10/28 02:13:25;;;;;;;0.10;0.10;;;;;;;15.67;84.94;100294.47;5015687;28;20028;-86
2023/10/28 02:15:50;;;;;;;0.10;0.10;;;;;;;15.53;85.67;100271.16;5015882;28;20208;-86
2023/10/28 02:18:18;;;;;;;0.10;0.10;;;;;;;15.67;85.62;100271.84;5016304;28;20517;-86
2023/10/28 02:20:44;;;;;;;0.20;0.20;;;;;;;15.58;85.96;100238.59;5000137;28;20029;-87
2023/10/28 02:23:13;;;;;;;0.10;0.10;;;;;;;15.63;87.59;100218.28;5050391;28;20025;-87
2023/10/28 02:25:40;;;;;;;0.20;0.20;;;;;;;15.70;87.40;100229.88;5017017;28;20025;-86
2023/10/28 02:28:06;;;;;;;0.10;0.10;;;;;;;15.75;87.24;100246.00;5015891;28;20562;-86
2023/10/28 02:30:31;;;;;;;0.10;0.10;;;;;;;15.72;87.04;100251.44;5016042;28;20036;-87
2023/10/28 02:32:57;;;;;;;0.10;0.10;;;;;;;15.68;87.52;100250.03;5016196;28;20082;-86
2023/10/28 02:35:22;;;;;;;0.10;0.10;;;;;;;15.76;88.23;100254.66;5016112;28;20025;-87
2023/10/28 02:37:48;;;;;;;0.10;0.10;;;;;;;15.69;88.45;100249.06;5016062;28;20037;-86
2023/10/28 02:40:14;;;;;;;0.10;0.10;;;;;;;15.66;87.98;100244.09;4999543;28;20540;-86
2023/10/28 02:42:40;;;;;;;0.10;0.10;;;;;;;15.61;87.67;100233.19;5032160;28;20120;-86
2023/10/28 02:45:09;;;;;;;0.10;0.10;;;;;;;15.69;87.77;100228.22;5032520;28;20498;-86
2023/10/28 02:47:34;;;;;;;0.20;0.20;;;;;;;15.83;87.97;100224.56;5000308;28;20029;-87
2023/10/28 02:50:00;;;;;;;0.10;0.10;;;;;;;15.77;86.66;100225.84;4999565;28;20088;-87
2023/10/28 02:52:26;;;;;;;0.10;0.10;;;;;;;15.75;87.09;100222.53;5015635;28;20029;-87
2023/10/28 02:54:52;;;;;;;0.10;0.10;;;;;;;15.72;87.37;100222.75;5015643;28;20518;-87
2023/10/28 02:57:18;;;;;;;0.10;0.10;;;;;;;15.75;88.08;100227.75;5032074;28;20028;-87
2023/10/28 02:59:44;;;;;;;0.10;0.10;;;;;;;15.76;87.05;100245.06;5015870;28;20020;-87
2023/10/28 03:02:10;;;;;;;0.10;0.10;;;;;;;15.81;87.67;100257.75;5018979;28;20399;-88
2023/10/28 03:04:35;;;;;;;0.10;0.10;;;;;;;15.67;87.27;100245.75;5019842;28;20539;-87
2023/10/28 03:07:01;;;;;;;0.20;0.20;;;;;;;15.81;86.86;100251.69;5035950;28;20048;-87
2023/10/28 03:09:26;;;;;;;0.10;0.10;;;;;;;15.93;86.72;100276.84;5018763;28;20033;-86
2023/10/28 03:11:52;;;;;;;0.20;0.20;;;;;;;15.76;86.65;100278.97;5035767;28;20024;-87
2023/10/28 03:14:17;;;;;;;0.10;0.10;;;;;;;15.70;88.53;100270.75;5018997;28;20041;-87
2023/10/28 03:16:44;;;;;;;0.10;0.10;;;;;;;15.75;88.65;100277.31;5019259;28;20043;-87
2023/10/28 03:19:11;;;;;;;0.10;0.10;;;;;;;15.69;88.35;100262.13;5017363;28;20513;-87
2023/10/28 03:21:37;;;;;;;0.20;0.20;;;;;;;15.76;87.73;100250.28;5035710;28;20039;-87
2023/10/28 03:24:02;;;;;;;0.10;0.10;;;;;;;15.66;88.78;100220.63;5034709;28;20029;-88
2023/10/28 03:26:28;;;;;;;0.10;0.10;;;;;;;15.75;88.47;100253.00;5017338;28;20533;-87
2023/10/28 03:28:53;;;;;;;0.10;0.10;;;;;;;15.69;88.24;100264.72;5002143;28;20514;-87
2023/10/28 03:31:19;;;;;;;0.20;0.20;;;;;;;15.61;88.37;100280.13;5018724;28;20037;-87
2023/10/28 03:33:46;;;;;;;0.20;0.20;;;;;;;15.46;88.24;100256.00;5002524;28;20063;-88
2023/10/28 03:36:11;;;;;;;0.10;0.10;;;;;;;15.57;88.86;100291.69;5035349;28;20467;-86
2023/10/28 03:38:37;;;;;;;0.17;0.17;;;;;;;15.65;89.34;100284.16;5034721;28;20048;-87
2023/10/28 03:41:09;;;;;;;0.10;0.10;;;;;;;15.66;89.43;100285.81;5019056;28;20033;-86
2023/10/28 03:43:35;;;;;;;0.10;0.10;;;;;;;15.60;89.17;100291.50;5035693;28;20017;-87
2023/10/28 03:46:01;;;;;;;0.10;0.10;;;;;;;15.52;88.60;100280.75;5002358;28;20433;-87
2023/10/28 03:48:26;;;;;;;0.10;0.10;;;;;;;15.60;88.09;100286.28;5018813;28;20078;-87
2023/10/28 03:51:02;;;;;;;0.10;0.10;;;;;;;15.44;87.35;100270.09;5018277;28;20033;-87
2023/10/28 03:53:27;;;;;;;0.10;0.10;;;;;;;15.48;86.58;100279.34;5018465;28;20398;-88
2023/10/28 03:55:53;;;;;;;0.10;0.10;;;;;;;15.62;86.36;100315.66;5001815;28;20021;-87
2023/10/28 03:58:18;;;;;;;0.10;0.10;;;;;;;15.62;86.68;100330.47;5002009;28;20068;-87
2023/10/28 04:00:45;;;;;;;0.10;0.10;;;;;;;15.64;87.72;100332.06;5018640;28;20028;-87
2023/10/28 04:03:10;;;;;;;0.10;0.10;;;;;;;15.71;88.06;100330.63;5018424;28;20032;-88
2023/10/28 04:05:37;;;;;;;0.10;0.10;;;;;;;15.55;88.31;100301.41;5018410;28;20036;-87
2023/10/28 04:08:03;;;;;;;0.20;0.20;;;;;;;15.66;87.54;100326.72;5018291;28;20403;-88
2023/10/28 04:10:30;;;;;;;0.17;0.17;;;;;;;15.57;87.53;100319.53;5034487;28;20025;-86
2023/10/28 04:12:55;;;;;;;0.10;0.10;;;;;;;15.47;88.00;100301.16;5017339;28;20028;-86
2023/10/28 04:15:20;;;;;;;0.10;0.10;;;;;;;15.68;87.96;100330.88;5034048;28;20118;-87
2023/10/28 04:17:46;;;;;;;0.10;0.10;;;;;;;15.64;87.41;100342.47;5001746;28;20036;-87
2023/10/28 04:20:11;;;;;;;0.10;0.10;;;;;;;15.58;86.86;100334.25;5001638;28;20465;-87
2023/10/28 04:22:37;;;;;;;0.10;0.10;;;;;;;15.47;85.96;100348.06;5033856;28;20036;-87
2023/10/28 04:25:03;;;;;;;0.10;0.10;;;;;;;15.46;87.25;100342.03;5034412;28;20033;-88
2023/10/28 04:27:29;;;;;;;0.17;0.17;;;;;;;15.47;86.83;100350.69;5034174;28;20075;-87
2023/10/28 04:29:54;;;;;;;0.20;0.20;;;;;;;15.36;87.69;100332.41;5001454;28;20025;-87
2023/10/28 04:32:22;;;;;;;0.20;0.20;;;;;;;15.46;87.55;100357.69;5018251;28;20463;-86
2023/10/28 04:34:49;;;;;;;0.10;0.10;;;;;;;15.47;87.63;100338.47;5018449;28;20025;-86
2023/10/28 04:37:14;;;;;;;0.10;0.10;;;;;;;15.51;86.87;100349.50;5033646;28;20033;-88
2023/10/28 04:39:40;;;;;;;0.10;0.10;;;;;;;15.42;86.92;100342.34;5017717;28;20032;-87
2023/10/28 04:42:07;;;;;;;0.10;0.10;;;;;;;15.39;86.71;100345.19;5017790;28;20489;-87
2023/10/28 04:44:33;;;;;;;0.10;0.10;;;;;;;15.42;86.52;100344.97;5017668;28;20029;-87
2023/10/28 04:46:58;;;;;;;0.10;0.10;;;;;;;15.41;86.27;100362.38;5017568;28;20080;-87
2023/10/28 04:49:24;;;;;;;0.10;0.10;;;;;;;15.38;86.92;100351.34;5017399;28;20025;-87
2023/10/28 04:51:49;;;;;;;0.20;0.20;;;;;;;15.37;87.27;100357.50;5017160;28;20094;-87
2023/10/28 04:54:15;;;;;;;0.20;0.20;;;;;;;15.49;87.58;100356.59;5017273;28;20036;-87
2023/10/28 04:56:40;;;;;;;0.10;0.10;;;;;;;15.51;87.02;100344.28;5000955;28;20044;-88
2023/10/28 04:59:07;;;;;;;0.20;0.20;;;;;;;15.54;86.11;100344.06;5017301;28;20580;-87
2023/10/28 05:01:32;;;;;;;0.10;0.10;;;;;;;15.50;85.91;100343.47;5017643;28;20032;-87
2023/10/28 05:03:58;;;;;;;0.13;0.13;;;;;;;15.47;86.05;100353.28;5033357;28;20025;-87
2023/10/28 05:06:23;;;;;;;0.10;0.10;;;;;;;15.47;85.66;100355.91;5000593;28;20029;-87
2023/10/28 05:08:49;;;;;;;0.10;0.10;;;;;;;15.36;85.93;100345.44;5017399;28;20546;-87
2023/10/28 05:11:16;;;;;;;0.10;0.10;;;;;;;15.41;85.89;100375.41;5017228;28;20024;-87
2023/10/28 05:13:42;;;;;;;0.10;0.10;;;;;;;15.40;86.61;100378.97;5033157;28;20099;-87
2023/10/28 05:16:09;;;;;;;0.10;0.10;;;;;;;15.32;88.03;100351.78;5017076;28;20108;-87
2023/10/28 05:18:35;;;;;;;0.10;0.10;;;;;;;15.47;87.91;100359.34;5017528;28;20034;-87
2023/10/28 05:21:01;;;;;;;0.10;0.10;;;;;;;15.40;86.49;100357.28;5016146;28;20475;-86
2023/10/28 05:23:26;;;;;;;0.10;0.10;;;;;;;15.45;85.35;100381.25;5016122;28;20057;-87
2023/10/28 05:25:53;;;;;;;0.10;0.10;;;;;;;15.26;85.92;100339.22;5000445;28;20055;-87
2023/10/28 05:28:19;;;;;;;0.20;0.20;;;;;;;15.52;86.82;100372.00;5033409;28;20418;-87
2023/10/28 05:30:45;;;;;;;0.10;0.10;;;;;;;15.54;86.36;100380.59;5016702;28;20033;-87
2023/10/28 05:33:11;;;;;;;0.13;0.13;;;;;;;15.40;86.82;100358.09;5017246;28;20119;-87
2023/10/28 05:35:37;;;;;;;0.10;0.10;;;;;;;15.51;86.08;100391.22;5016598;28;20071;-86
2023/10/28 05:38:02;;;;;;;0.10;0.10;;;;;;;15.39;86.09;100399.94;5016548;28;20517;-88
2023/10/28 05:40:28;;;;;;;0.17;0.17;;;;;;;15.40;86.09;100409.41;5016582;28;20620;-87
2023/10/28 05:42:54;;;;;;;0.10;0.10;;;;;;;15.43;86.08;100414.41;5016710;28;20029;-87
2023/10/28 05:45:20;;;;;;;0.10;0.10;;;;;;;15.35;85.74;100401.94;5016690;28;20501;-87
2023/10/28 05:47:46;;;;;;;0.10;0.10;;;;;;;15.28;86.33;100394.66;5016286;28;20024;-88
2023/10/28 05:50:12;;;;;;;0.10;0.10;;;;;;;15.41;86.62;100442.34;5016314;28;20028;-87
2023/10/28 05:52:40;;;;;;;0.10;0.10;;;;;;;15.45;86.46;100447.25;5000117;28;20411;-88
2023/10/28 05:55:12;;;;;;;0.20;0.20;;;;;;;15.39;86.96;100428.59;5017547;28;20035;-86
2023/10/28 05:57:38;;;;;;;0.10;0.10;;;;;;;15.39;88.34;100428.59;5017884;28;20035;-88
2023/10/28 06:00:09;;;;;;;0.10;0.10;;;;;;;15.53;87.66;100425.81;5016748;28;20075;-87
2023/10/28 06:02:36;;;;;;;0.20;0.20;;;;;;;15.62;87.70;100430.41;5009863;28;20044;-87
2023/10/28 06:05:03;;;;;;;0.20;0.20;;;;;;;15.61;88.45;100428.75;5035924;28;20032;-87
2023/10/28 06:07:29;;;;;;;0.10;0.10;;;;;;;15.58;88.87;100439.38;5036757;28;20448;-88
2023/10/28 06:09:55;;;;;;;0.13;0.13;;;;;;;15.56;88.81;100404.75;5019203;28;20484;-87
2023/10/28 06:12:20;;;;;;;0.10;0.10;;;;;;;15.74;89.15;100413.88;5036061;28;20482;-87
2023/10/28 06:14:46;;;;;;;0.10;0.10;;;;;;;15.93;87.86;100425.56;5035821;28;20044;-88
2023/10/28 06:17:11;;;;;;;0.20;0.20;;;;;;;15.96;87.24;100427.94;5036298;28;20085;-88
2023/10/28 06:19:37;;;;;;;0.13;0.13;;;;;;;16.06;86.92;100434.13;5029403;28;20079;-88
2023/10/28 06:22:02;;;;;;;0.10;0.10;;;;;;;16.03;86.81;100429.16;5015073;28;20402;-87
2023/10/28 06:24:28;;;;;;;0.20;0.20;;;;;;;16.09;84.43;100440.88;5048276;28;20053;-87
2023/10/28 06:26:55;;;;;;;0.10;0.10;;;;;;;16.11;85.15;100447.66;5014375;28;20025;-88
2023/10/28 06:29:20;;;;;;;0.10;0.10;;;;;;;16.16;85.88;100449.94;5031544;28;20031;-89
2023/10/28 06:31:46;;;;;;;0.10;0.10;;;;;;;16.18;86.56;100448.03;5015896;28;20124;-87
2023/10/28 06:34:12;;;;;;;0.10;0.10;;;;;;;16.22;86.58;100447.69;5032781;28;20409;-88
2023/10/28 06:36:40;;;;;;;0.10;0.10;;;;;;;16.18;86.70;100433.19;5018161;28;20433;-88
2023/10/28 06:39:08;;;;;;;0.10;0.10;;;;;;;16.24;86.27;100437.97;5036859;28;20044;-89
2023/10/28 06:41:34;;;;;;;0.10;0.10;;;;;;;16.32;86.26;100455.63;5036247;28;20029;-89
2023/10/28 06:44:05;;;;;;;0.10;0.10;;;;;;;16.34;85.84;100453.78;5003165;28;20115;-89
2023/10/28 06:46:34;;;;;;;0.20;0.20;;;;;;;16.41;86.74;100448.88;5004758;28;20035;-88
2023/10/28 06:48:59;;;;;;;0.10;0.10;;;;;;;16.45;86.77;100460.78;5019823;28;20407;-88
2023/10/28 06:51:25;;;;;;;0.20;0.20;;;;;;;16.41;84.74;100457.56;5019628;28;20036;-88
2023/10/28 06:53:50;;;;;;;0.10;0.10;;;;;;;16.60;84.84;100475.28;5019923;28;20406;-88
2023/10/28 06:56:16;;;;;;;0.10;0.10;;;;;;;16.76;83.38;100493.25;5020137;28;20090;-89
2023/10/28 06:58:41;;;;;;;0.10;0.10;;;;;;;16.85;81.06;100484.72;5019656;28;20029;-89
2023/10/28 07:01:09;;;;;;;0.20;0.20;;;;;;;16.94;82.16;100472.72;5019714;28;20031;-89
2023/10/28 07:03:37;;;;;;;0.10;0.10;;;;;;;16.96;80.64;100478.66;5003339;28;20028;-88
2023/10/28 07:06:14;;;;;;;0.20;0.20;;;;;;;16.94;78.34;100481.38;5019659;28;20032;-89
2023/10/28 07:08:40;;;;;;;0.10;0.10;;;;;;;16.99;77.41;100507.97;5021780;28;20032;-88
2023/10/28 07:11:07;;;;;;;0.10;0.10;;;;;;;17.09;77.00;100492.41;5002886;28;20033;-89
2023/10/28 07:13:33;;;;;;;0.10;0.10;;;;;;;17.17;79.04;100484.81;5035477;28;20091;-89
2023/10/28 07:16:02;;;;;;;0.20;0.20;;;;;;;17.29;77.27;100489.06;5018855;28;20024;-88
2023/10/28 07:18:29;;;;;;;0.10;0.10;;;;;;;17.32;77.14;100494.06;5002943;28;20025;-89
2023/10/28 07:20:55;;;;;;;0.10;0.10;;;;;;;17.37;77.22;100497.13;5019620;28;20100;-89
2023/10/28 07:23:20;;;;;;;0.10;0.10;;;;;;;17.37;75.85;100491.06;5018841;28;20521;-88
2023/10/28 07:25:46;;;;;;;0.20;0.20;;;;;;;17.40;77.08;100482.97;5018831;28;20032;-88
2023/10/28 07:28:13;;;;;;;0.10;0.10;;;;;;;17.56;75.37;100503.53;5018894;28;20127;-88
2023/10/28 07:30:49;;;;;;;0.10;0.10;;;;;;;17.33;75.24;100464.34;5002613;28;20491;-89
2023/10/28 07:33:14;;;;;;;0.10;0.10;;;;;;;17.67;76.56;100512.16;5035526;28;20032;-87
2023/10/28 07:35:50;;;;;;;0.15;0.15;;;;;;;17.58;76.67;100493.75;5018695;28;20024;-87
2023/10/28 07:38:16;;;;;;;0.10;0.10;;;;;;;17.54;75.15;100505.44;5003439;28;20402;-87
2023/10/28 07:40:42;;;;;;;0.10;0.10;;;;;;;17.58;75.17;100525.97;5018420;28;20025;-89
2023/10/28 07:43:10;;;;;;;0.20;0.20;;;;;;;17.44;76.63;100503.56;5002178;28;20830;-88
2023/10/28 07:45:36;;;;;;;0.15;0.15;;;;;;;17.61;76.13;100533.59;5018147;28;20025;-87
2023/10/28 07:48:01;;;;;;;0.10;0.10;;;;;;;17.55;76.96;100520.16;5034952;28;20025;-88
2023/10/28 07:50:27;;;;;;;0.10;0.10;;;;;;;17.72;76.35;100538.00;5034798;28;20029;-88
2023/10/28 07:52:52;;;;;;;0.10;0.10;;;;;;;17.83;76.74;100535.34;5001943;28;20029;-88
2023/10/28 07:55:17;;;;;;;0.10;0.10;;;;;;;17.83;75.55;100537.97;5018278;28;20036;-87
2023/10/28 07:57:46;;;;;;;0.20;0.20;;;;;;;17.77;75.10;100520.97;5018038;28;20491;-88
2023/10/28 08:00:13;;;;;;;0.10;0.10;;;;;;;17.86;74.92;100534.28;5018548;28;20095;-88
2023/10/28 08:02:43;;;;;;;0.20;0.20;;;;;;;17.78;74.00;100545.34;5018671;28;20028;-88
2023/10/28 08:05:10;;;;;;;0.20;0.20;;;;;;;17.79;73.69;100554.84;5018678;28;20083;-88
2023/10/28 08:07:36;;;;;;;0.20;0.20;;;;;;;17.78;72.27;100547.97;5051256;28;20056;-88
2023/10/28 08:10:02;;;;;;;0.20;0.20;;;;;;;17.91;75.01;100543.44;5018320;28;20497;-87
2023/10/28 08:12:27;;;;;;;0.10;0.10;;;;;;;18.05;73.41;100555.38;5017963;28;20041;-87
2023/10/28 08:14:53;;;;;;;0.10;0.10;;;;;;;18.12;72.35;100547.88;5000794;28;20053;-87
2023/10/28 08:17:18;;;;;;;0.20;0.20;;;;;;;18.28;72.35;100553.50;5017942;28;20379;-89
2023/10/28 08:19:44;;;;;;;0.20;0.20;;;;;;;18.45;70.39;100555.56;5001468;28;20396;-88
2023/10/28 08:22:12;;;;;;;0.20;0.20;;;;;;;18.44;70.07;100566.16;5017550;28;20025;-87
2023/10/28 08:24:37;;;;;;;0.10;0.10;;;;;;;18.53;68.87;100566.22;5002069;28;20037;-88
2023/10/28 08:27:03;;;;;;;0.13;0.13;;;;;;;18.63;68.93;100574.16;5017817;28;20083;-87
2023/10/28 08:29:29;;;;;;;0.10;0.10;;;;;;;18.87;67.40;100573.91;5017313;28;20025;-87
2023/10/28 08:31:54;;;;;;;0.20;0.20;;;;;;;19.04;65.19;100570.69;5001252;28;20403;-88
2023/10/28 08:34:19;;;;;;;0.10;0.10;;;;;;;19.15;65.03;100573.22;5001318;28;20399;-87
2023/10/28 08:36:45;;;;;;;0.10;0.10;;;;;;;19.39;65.39;100564.22;5001216;28;20035;-88
2023/10/28 08:39:13;;;;;;;0.10;0.10;;;;;;;19.53;65.09;100570.88;5051947;28;20036;-88
2023/10/28 08:41:38;;;;;;;0.10;0.10;;;;;;;19.40;62.47;100571.13;5001835;28;20029;-87
2023/10/28 08:44:04;;;;;;;0.15;0.15;;;;;;;19.60;61.98;100579.94;5000804;28;20114;-88
2023/10/28 08:46:30;;;;;;;0.10;0.10;;;;;;;19.60;61.58;100580.75;5000993;28;20075;-88
2023/10/28 08:48:56;;;;;;;0.10;0.10;;;;;;;19.55;61.67;100554.03;5033680;28;20029;-88
2023/10/28 08:51:21;;;;;;;0.20;0.20;;;;;;;19.68;62.58;100565.16;5017358;28;20158;-88
2023/10/28 08:53:47;;;;;;;0.20;0.20;;;;;;;19.74;61.08;100569.84;5001014;28;20036;-87
2023/10/28 08:56:16;;;;;;;0.20;0.20;;;;;;;19.80;60.08;100557.19;5017547;28;20040;-88
2023/10/28 08:58:42;;;;;;;0.10;0.10;;;;;;;19.81;60.04;100564.91;5016863;28;20487;-88
2023/10/28 09:01:08;;;;;;;0.10;0.10;;;;;;;19.77;58.92;100590.59;5017402;28;20029;-89
2023/10/28 09:03:33;;;;;;;0.10;0.10;;;;;;;19.83;58.84;100583.13;5017242;28;20029;-89
2023/10/28 09:06:01;;;;;;;0.20;0.20;;;;;;;20.00;57.92;100575.44;5000618;28;20035;-86
2023/10/28 09:08:27;;;;;;;0.20;0.20;;;;;;;19.98;54.15;100581.81;5017519;28;20068;-86
2023/10/28 09:10:53;;;;;;;0.10;0.10;;;;;;;19.92;51.97;100577.06;5017268;28;20541;-86
2023/10/28 09:13:18;;;;;;;0.10;0.10;;;;;;;20.18;53.36;100586.09;5016521;28;20033;-86
2023/10/28 09:15:43;;;;;;;0.10;0.10;;;;;;;20.19;52.28;100573.78;5033456;28;20096;-86
2023/10/28 09:18:09;;;;;;;0.20;0.20;;;;;;;20.16;52.29;100585.41;5016879;28;20039;-86
2023/10/28 09:20:37;;;;;;;0.20;0.20;;;;;;;20.07;52.60;100564.41;5014397;28;20387;-86
2023/10/28 09:23:03;;;;;;;0.20;0.20;;;;;;;20.33;53.34;100581.25;5014966;28;20029;-88
2023/10/28 09:25:28;;;;;;;0.10;0.10;;;;;;;20.35;52.24;100574.03;5031140;28;20029;-87
2023/10/28 09:27:54;;;;;;;0.10;0.10;;;;;;;20.36;52.94;100565.22;5014099;28;20038;-86
2023/10/28 09:30:19;;;;;;;0.10;0.10;;;;;;;20.58;52.29;100570.19;5016173;28;20460;-87
2023/10/28 09:32:45;;;;;;;0.13;0.13;;;;;;;20.54;52.66;100550.41;5016692;28;20025;-86
2023/10/28 09:35:11;;;;;;;0.10;0.10;;;;;;;20.56;47.21;100561.63;5000160;28;20079;-86
2023/10/28 09:37:37;;;;;;;0.20;0.20;;;;;;;20.58;50.65;100564.13;5016652;28;20087;-86
2023/10/28 09:40:05;;;;;;;0.10;0.10;;;;;;;20.64;51.65;100568.78;5000262;28;20029;-87
2023/10/28 09:42:33;;;;;;;0.10;0.10;;;;;;;20.85;53.64;100577.34;5032956;28;20049;-85
2023/10/28 09:45:00;;;;;;;0.10;0.10;;;;;;;20.83;53.47;100558.22;5017214;28;20068;-86
2023/10/28 09:47:46;;;;;;;0.10;0.10;;;;;;;20.89;54.54;100564.72;5016322;28;20029;-86
2023/10/28 09:50:13;;;;;;;0.10;0.10;;;;;;;20.98;54.43;100555.16;5035120;28;20483;-87
2023/10/28 09:52:38;;;;;;;0.10;0.10;;;;;;;21.07;53.75;100549.03;5000375;28;20036;-87
2023/10/28 09:55:07;;;;;;;0.20;0.20;;;;;;;21.05;53.94;100540.47;5016784;28;20033;-86
2023/10/28 09:57:33;;;;;;;0.10;0.10;;;;;;;21.11;55.76;100548.59;5017306;28;20029;-87
2023/10/28 09:59:59;;;;;;;0.20;0.20;;;;;;;21.13;53.87;100544.00;5016561;28;20398;-86
2023/10/28 10:02:57;;;;;;;0.10;0.10;;;;;;;21.17;54.41;100515.63;5016444;28;20039;-89
2023/10/28 10:05:30;;;;;;;0.20;0.20;;;;;;;21.45;53.72;100548.06;5018494;28;20090;-90
2023/10/28 10:07:55;;;;;;;0.20;0.20;;;;;;;21.55;52.89;100553.28;5016563;28;20451;-89
2023/10/28 10:10:21;;;;;;;0.20;0.20;;;;;;;21.31;53.50;100515.16;5016045;28;20068;-90
2023/10/28 10:12:50;;;;;;;0.20;0.20;;;;;;;21.37;53.87;100535.63;5036748;28;20040;-90
2023/10/28 10:15:19;;;;;;;0.10;0.10;;;;;;;21.44;51.91;100547.25;5004450;28;20052;-90
2023/10/28 10:17:57;;;;;;;0.10;0.10;;;;;;;21.55;50.55;100537.47;5021708;28;20483;-90
2023/10/28 10:20:24;;;;;;;0.10;0.10;;;;;;;21.53;51.12;100515.72;5020770;28;20094;-90
2023/10/28 10:23:00;;;;;;;0.10;0.10;;;;;;;21.76;51.95;100535.41;5020622;28;20032;-90
2023/10/28 10:25:43;;;;;;;0.17;0.17;;;;;;;21.89;51.73;100529.75;5004262;28;20090;-88
2023/10/28 10:28:18;;;;;;;0.10;0.10;;;;;;;21.85;50.05;100513.44;5021206;28;20036;-88
2023/10/28 10:30:44;;;;;;;0.10;0.10;;;;;;;21.98;48.75;100536.75;5004130;28;20025;-89
2023/10/28 10:33:09;;;;;;;0.20;0.20;;;;;;;22.03;50.27;100531.88;5020083;28;20036;-89
2023/10/28 10:35:36;;;;;;;0.20;0.20;;;;;;;22.17;51.22;100512.91;5003646;28;20029;-88
2023/10/28 10:38:05;;;;;;;0.10;0.10;;;;;;;22.45;50.17;100532.06;5020262;28;20124;-89
2023/10/28 10:40:32;;;;;;;0.10;0.10;;;;;;;22.54;50.84;100531.16;5020326;28;20115;-89
2023/10/28 10:43:07;;;;;;;0.15;0.15;;;;;;;22.71;49.14;100539.13;5019923;28;20505;-89
2023/10/28 10:45:34;;;;;;;0.10;0.10;;;;;;;22.79;50.30;100528.66;5019857;28;20108;-89
2023/10/28 10:48:01;;;;;;;0.20;0.20;;;;;;;22.79;50.97;100533.91;5019800;28;20403;-90
2023/10/28 10:50:26;;;;;;;0.10;0.10;;;;;;;22.78;48.36;100524.34;5019571;28;20530;-90
2023/10/28 10:52:52;;;;;;;0.20;0.20;;;;;;;22.86;48.81;100521.81;5003403;28;20029;-89
2023/10/28 10:55:24;;;;;;;0.10;0.10;;;;;;;22.88;48.50;100538.28;5035633;28;20166;-90
2023/10/28 10:57:51;;;;;;;0.20;0.20;;;;;;;22.85;48.36;100514.88;5003825;28;20466;-89
2023/10/28 11:00:17;;;;;;;0.10;0.10;;;;;;;22.84;47.93;100521.13;5019716;28;20616;-91
2023/10/28 11:02:42;;;;;;;0.20;0.20;;;;;;;22.82;48.01;100518.63;5020117;28;20067;-89
2023/10/28 11:05:08;;;;;;;0.10;0.10;;;;;;;22.85;47.99;100509.59;5003132;28;20110;-89
2023/10/28 11:07:35;;;;;;;0.20;0.20;;;;;;;22.79;49.02;100512.81;5019337;28;20048;-90
2023/10/28 11:10:01;;;;;;;0.10;0.10;;;;;;;22.74;50.09;100517.75;5019124;28;20040;-89
2023/10/28 11:12:27;;;;;;;0.20;0.20;;;;;;;22.50;49.50;100513.97;5019427;28;20487;-89
2023/10/28 11:14:54;;;;;;;0.10;0.10;;;;;;;22.40;50.89;100510.59;5019231;28;20053;-90
2023/10/28 11:17:19;;;;;;;0.10;0.10;;;;;;;22.43;50.69;100522.66;5019640;28;20041;-89
2023/10/28 11:19:49;;;;;;;0.10;0.10;;;;;;;22.47;51.54;100524.81;5002841;28;20029;-90
2023/10/28 11:22:15;;;;;;;0.10;0.10;;;;;;;22.51;51.05;100523.53;5018625;28;20474;-91